Mount Shasta, CA (96067)

11:01 PM PDT on July 25, 2016 (GMT -0700)
Mt Shasta | | Change Station

Elev 3652 ft 41.33 °N, 122.35 °W | Updated 9 seconds ago

Clear
Clear
75.2 °F
Feels Like 78 °F
N
2.0
Wind Variable Wind from NW
Gusts 3.0 mph

Today
High -- | Low -- °F
--% Chance of Precip.
Yesterday
High -- | Low -- °F
Precip. -- in
Pressure 30.04 in
Visibility 10.0 miles
Clouds Clear
Heat Index 78 °F
Dew Point 51 °F
Humidity 43%
Rainfall in
Snow Depth Not available.
5:58 AM 8:32 PM
Waning Gibbous, 58% visible
METAR KMHS 260556Z AUTO 00000KT 10SM CLR 24/10 A3011 RMK AO2 SLP171 T02390100 10333 20228 53018
Pressure 30.04 in
Visibility 10.0 miles
Clouds Clear
Heat Index 78 °F
Dew Point 51 °F
Humidity 43%
Rainfall in
Snow Depth Not available.
5:58 AM 8:32 PM
Waning Gibbous, 58% visible
METAR KMHS 260556Z AUTO 00000KT 10SM CLR 24/10 A3011 RMK AO2 SLP171 T02390100 10333 20228 53018

10-Day Weather Forecast

Almanac

Astronomy

Jul. 25, 2016 Rise Set
Actual Time
Civil Twilight
Nautical Twilight
Astronomical Twilight
Moon
Length of Visible Light
Length of Day
Tomorrow will be .
, % of the Moon is Illuminated

Today's Extremes

State Highs State Lows

Community

WunderPhotos

Upload Photos

1,927,547 photos uploaded!

WunderBlog® & News

Nearby

Air Quality

  Air Quality AQ Index Pollutant
Not available.

Snow Depth

Station Depth Elevation

Earthquake Activity

City Distance Mag. Time & Date
Minimum magnitude displayed is 2.5.

Coastal Water Temperatures

Place Temperature

Stations

Nearby Weather Stations

Station Location Temp. Windchill Dew Point Humidity Wind Precip. Elev Updated Type
                   

Watches & Warnings

There are currently no watches in effect.